createdAt,value
2023-09-15T00:00:27.354Z,17.00
2023-09-15T00:03:16.822Z,17.00
2023-09-15T00:06:05.246Z,17.00
2023-09-15T00:08:53.333Z,17.00
2023-09-15T00:11:43.564Z,16.90
2023-09-15T00:14:30.773Z,16.90
2023-09-15T00:17:18.949Z,16.70
2023-09-15T00:20:18.446Z,16.70
2023-09-15T00:23:05.761Z,16.70
2023-09-15T00:25:56.273Z,16.60
2023-09-15T00:28:46.304Z,16.60
2023-09-15T00:31:33.818Z,16.70
2023-09-15T00:34:23.473Z,16.60
2023-09-15T00:37:10.742Z,16.40
2023-09-15T00:39:59.574Z,16.30
2023-09-15T00:42:48.830Z,16.30
2023-09-15T00:45:38.129Z,16.30
2023-09-15T00:48:27.934Z,16.30
2023-09-15T00:51:15.729Z,16.30
2023-09-15T00:54:04.921Z,16.20
2023-09-15T00:56:52.289Z,16.20
2023-09-15T00:59:40.586Z,16.10
2023-09-15T01:02:29.531Z,16.10
2023-09-15T01:05:22.606Z,16.00
2023-09-15T01:08:10.501Z,16.00
2023-09-15T01:11:02.343Z,16.10
2023-09-15T01:13:50.281Z,16.10
2023-09-15T01:16:43.917Z,16.10
2023-09-15T01:19:56.040Z,16.00
2023-09-15T01:23:10.934Z,16.00
2023-09-15T01:26:20.026Z,15.80
2023-09-15T01:29:39.577Z,15.80
2023-09-15T01:32:29.008Z,15.80
2023-09-15T01:35:16.271Z,15.80
2023-09-15T01:38:04.713Z,15.70
2023-09-15T01:40:52.005Z,15.60
2023-09-15T01:43:40.255Z,15.60
2023-09-15T01:46:28.930Z,15.60
2023-09-15T01:49:19.259Z,15.50
2023-09-15T01:52:07.997Z,15.40
2023-09-15T01:54:57.962Z,15.40
2023-09-15T01:57:45.399Z,15.40
2023-09-15T02:00:37.958Z,15.40
2023-09-15T02:03:26.638Z,15.30
2023-09-15T02:06:18.414Z,15.30
2023-09-15T02:09:06.453Z,15.30
2023-09-15T02:11:54.843Z,15.30
2023-09-15T02:14:42.220Z,15.40
2023-09-15T02:17:31.720Z,15.40
2023-09-15T02:20:20.358Z,15.40
2023-09-15T02:23:08.508Z,15.20
2023-09-15T02:25:55.889Z,15.30
2023-09-15T02:28:44.200Z,15.20
2023-09-15T02:31:32.158Z,15.10
2023-09-15T02:34:19.960Z,15.00
2023-09-15T02:37:09.057Z,15.00
2023-09-15T02:39:57.994Z,14.90
2023-09-15T02:42:45.801Z,15.00
2023-09-15T02:45:36.395Z,15.00
2023-09-15T02:48:24.723Z,14.90
2023-09-15T02:51:12.976Z,14.80
2023-09-15T02:54:01.930Z,14.80
2023-09-15T02:56:50.292Z,14.80
2023-09-15T02:59:37.574Z,14.80
2023-09-15T03:02:26.245Z,14.80
2023-09-15T03:05:14.176Z,14.90
2023-09-15T03:08:04.733Z,14.90
2023-09-15T03:10:56.955Z,14.80
2023-09-15T03:13:45.160Z,14.90
2023-09-15T03:16:33.755Z,14.80
2023-09-15T03:19:22.167Z,14.80
2023-09-15T03:22:11.671Z,14.80
2023-09-15T03:24:59.463Z,14.70
2023-09-15T03:27:48.098Z,14.70
2023-09-15T03:30:37.527Z,14.70
2023-09-15T03:33:26.853Z,14.50
2023-09-15T03:36:14.194Z,14.50
2023-09-15T03:39:02.290Z,14.50
2023-09-15T03:41:50.051Z,14.50
2023-09-15T03:44:39.176Z,14.50
2023-09-15T03:47:26.638Z,14.40
2023-09-15T03:50:21.396Z,14.40
2023-09-15T03:53:28.064Z,14.30
2023-09-15T03:56:16.234Z,14.30
2023-09-15T03:59:05.077Z,14.30
2023-09-15T04:01:53.765Z,14.10
2023-09-15T04:04:41.481Z,14.00
2023-09-15T04:07:29.931Z,13.90
2023-09-15T04:10:17.902Z,14.00
2023-09-15T04:13:05.288Z,14.20
2023-09-15T04:15:53.297Z,14.20
2023-09-15T04:18:42.069Z,14.10
2023-09-15T04:21:29.808Z,14.00
2023-09-15T04:24:18.295Z,14.10
2023-09-15T04:27:05.910Z,14.00
2023-09-15T04:29:57.654Z,13.90
2023-09-15T04:32:51.490Z,14.00
2023-09-15T04:35:41.785Z,14.20
2023-09-15T04:38:29.581Z,14.30
2023-09-15T04:41:16.829Z,14.30
2023-09-15T04:44:04.833Z,14.20
2023-09-15T04:46:52.411Z,14.20
2023-09-15T04:49:40.839Z,14.20
2023-09-15T04:52:29.937Z,14.30
2023-09-15T04:55:17.389Z,14.40
2023-09-15T04:58:06.226Z,14.30
2023-09-15T05:01:00.268Z,14.50
2023-09-15T05:03:50.213Z,14.30
2023-09-15T05:06:38.063Z,14.30
2023-09-15T05:09:28.045Z,14.20
2023-09-15T05:12:17.655Z,14.20
2023-09-15T05:15:06.792Z,14.30
2023-09-15T05:17:55.811Z,14.20
2023-09-15T05:20:44.259Z,14.10
2023-09-15T05:23:32.034Z,14.20
2023-09-15T05:26:21.206Z,14.10
2023-09-15T05:29:09.794Z,14.10
2023-09-15T05:31:58.042Z,14.00
2023-09-15T05:34:45.352Z,13.90
2023-09-15T05:37:32.670Z,14.00
2023-09-15T05:40:21.142Z,14.00
2023-09-15T05:43:12.613Z,14.00
2023-09-15T05:46:00.589Z,14.00
2023-09-15T05:48:47.916Z,14.00
2023-09-15T05:51:36.464Z,14.00
2023-09-15T05:54:25.293Z,14.00
2023-09-15T05:57:12.669Z,14.10
2023-09-15T06:00:02.164Z,14.20
2023-09-15T06:03:00.008Z,14.20
2023-09-15T06:05:47.169Z,14.20
2023-09-15T06:08:35.358Z,14.20
2023-09-15T06:11:23.312Z,14.20
2023-09-15T06:14:10.649Z,14.20
2023-09-15T06:17:00.310Z,14.20
2023-09-15T06:19:47.580Z,14.40
2023-09-15T06:22:36.219Z,14.40
2023-09-15T06:25:23.776Z,14.40
2023-09-15T06:28:21.532Z,14.30
2023-09-15T06:31:10.853Z,14.40
2023-09-15T06:34:00.060Z,14.60
2023-09-15T06:36:48.024Z,14.60
2023-09-15T06:39:36.652Z,14.60
2023-09-15T06:42:24.442Z,14.80
2023-09-15T06:45:12.744Z,14.60
2023-09-15T06:48:01.361Z,14.60
2023-09-15T06:50:50.406Z,14.70
2023-09-15T06:53:37.634Z,14.90
2023-09-15T06:56:25.771Z,14.80
2023-09-15T06:59:13.224Z,14.60
2023-09-15T07:02:03.477Z,14.70
2023-09-15T07:04:51.015Z,14.70
2023-09-15T07:07:40.470Z,14.90
2023-09-15T07:10:27.863Z,15.00
2023-09-15T07:13:15.866Z,15.00
2023-09-15T07:16:03.616Z,15.00
2023-09-15T07:18:51.352Z,14.90
2023-09-15T07:21:42.571Z,15.00
2023-09-15T07:24:31.178Z,15.10
2023-09-15T07:27:19.419Z,15.30
2023-09-15T07:30:08.534Z,15.20
2023-09-15T07:32:56.058Z,15.20
2023-09-15T07:35:43.807Z,15.40
2023-09-15T07:38:34.194Z,15.40
2023-09-15T07:41:23.325Z,15.60
2023-09-15T07:44:11.738Z,15.60
2023-09-15T07:47:00.333Z,15.60
2023-09-15T07:49:49.221Z,15.60
2023-09-15T07:52:36.757Z,15.60
2023-09-15T07:55:24.978Z,15.60
2023-09-15T07:58:13.718Z,15.70
2023-09-15T08:01:02.597Z,15.70
2023-09-15T08:03:50.715Z,15.80
2023-09-15T08:06:38.256Z,15.90
2023-09-15T08:09:26.494Z,16.00
2023-09-15T08:12:14.301Z,16.00
2023-09-15T08:15:03.780Z,16.10
2023-09-15T08:17:51.334Z,16.10
2023-09-15T08:20:39.739Z,16.30
2023-09-15T08:23:27.057Z,16.40
2023-09-15T08:26:15.841Z,16.50
2023-09-15T08:29:06.032Z,16.70
2023-09-15T08:31:54.723Z,16.60
2023-09-15T08:34:42.999Z,16.70
2023-09-15T08:37:31.022Z,16.80
2023-09-15T08:40:21.345Z,16.90
2023-09-15T08:43:09.249Z,17.00
2023-09-15T08:45:57.582Z,17.10
2023-09-15T08:48:50.594Z,17.30
2023-09-15T08:51:39.983Z,17.30
2023-09-15T08:54:27.975Z,17.50
2023-09-15T08:57:17.093Z,18.30
2023-09-15T09:00:09.107Z,18.50
2023-09-15T09:02:57.537Z,19.00
2023-09-15T09:05:48.200Z,18.90
2023-09-15T09:08:39.048Z,19.00
2023-09-15T09:11:26.333Z,19.30
2023-09-15T09:14:13.874Z,19.80
2023-09-15T09:17:03.086Z,20.00
2023-09-15T09:19:51.301Z,20.20
2023-09-15T09:22:40.378Z,20.10
2023-09-15T09:25:29.696Z,20.20
2023-09-15T09:28:18.676Z,20.70
2023-09-15T09:31:06.953Z,20.60
2023-09-15T09:33:54.980Z,20.70
2023-09-15T09:36:48.424Z,21.20
2023-09-15T09:39:37.708Z,21.40
2023-09-15T09:42:25.744Z,21.50
2023-09-15T09:45:13.640Z,21.60
2023-09-15T09:48:01.798Z,22.00
2023-09-15T09:50:51.126Z,22.30
2023-09-15T09:53:38.453Z,22.10
2023-09-15T09:56:27.915Z,22.10
2023-09-15T09:59:16.876Z,22.10
2023-09-15T10:02:05.293Z,22.50
2023-09-15T10:04:52.930Z,22.90
2023-09-15T10:07:41.353Z,23.10
2023-09-15T10:10:29.371Z,22.80
2023-09-15T10:13:19.628Z,22.90
2023-09-15T10:16:07.444Z,22.80
2023-09-15T10:18:54.856Z,23.10
2023-09-15T10:21:42.840Z,23.50
2023-09-15T10:24:33.271Z,23.40
2023-09-15T10:27:21.340Z,23.40
2023-09-15T10:30:12.323Z,23.70
2023-09-15T10:33:01.683Z,23.90
2023-09-15T10:35:49.804Z,24.00
2023-09-15T10:38:38.261Z,24.00
2023-09-15T10:41:30.213Z,24.10
2023-09-15T10:44:28.914Z,23.50
2023-09-15T10:47:19.667Z,23.40
2023-09-15T10:50:09.337Z,24.00
2023-09-15T10:53:07.444Z,23.70
2023-09-15T10:55:57.646Z,23.70
2023-09-15T10:58:49.197Z,24.20
2023-09-15T11:01:38.142Z,24.70
2023-09-15T11:04:30.459Z,24.90
2023-09-15T11:07:19.188Z,24.90
2023-09-15T11:10:08.097Z,24.60
2023-09-15T11:13:00.633Z,24.80
2023-09-15T11:15:48.030Z,24.80
2023-09-15T11:18:36.516Z,24.90
2023-09-15T11:21:25.806Z,24.90
2023-09-15T11:24:13.327Z,24.80
2023-09-15T11:27:02.009Z,24.60
2023-09-15T11:30:02.910Z,24.40
2023-09-15T11:32:52.947Z,24.20
2023-09-15T11:35:40.851Z,25.00
2023-09-15T11:38:30.889Z,25.30
2023-09-15T11:41:18.310Z,25.60
2023-09-15T11:44:10.228Z,25.70
2023-09-15T11:46:59.509Z,25.60
2023-09-15T11:49:48.191Z,25.90
2023-09-15T11:52:36.303Z,26.20
2023-09-15T11:55:26.865Z,26.30
2023-09-15T11:58:14.703Z,26.20
2023-09-15T12:01:05.823Z,26.50
2023-09-15T12:03:54.495Z,25.80
2023-09-15T12:06:43.264Z,25.50
2023-09-15T12:09:31.041Z,25.70
2023-09-15T12:12:19.871Z,26.00
2023-09-15T12:15:08.745Z,26.10
2023-09-15T12:17:57.874Z,26.40
2023-09-15T12:20:48.281Z,26.30
2023-09-15T12:23:36.075Z,26.50
2023-09-15T12:26:25.561Z,26.60
2023-09-15T12:29:16.788Z,27.00
2023-09-15T12:32:06.247Z,26.60
2023-09-15T12:34:54.225Z,26.30
2023-09-15T12:37:43.001Z,26.70
2023-09-15T12:40:32.002Z,26.80
2023-09-15T12:43:20.911Z,26.70
2023-09-15T12:46:10.441Z,26.80
2023-09-15T12:48:58.161Z,26.70
2023-09-15T12:51:45.472Z,26.40
2023-09-15T12:54:33.377Z,25.80
2023-09-15T12:57:21.099Z,25.80
2023-09-15T13:00:09.361Z,26.20
2023-09-15T13:02:58.978Z,26.50
2023-09-15T13:05:46.381Z,26.70
2023-09-15T13:08:34.161Z,26.50
2023-09-15T13:11:21.958Z,26.80
2023-09-15T13:14:09.216Z,26.30
2023-09-15T13:16:56.671Z,26.30
2023-09-15T13:19:45.912Z,26.50
2023-09-15T13:22:34.188Z,26.80
2023-09-15T13:25:21.475Z,26.90
2023-09-15T13:28:10.083Z,26.80
2023-09-15T13:30:57.511Z,26.70
2023-09-15T13:33:47.952Z,25.90
2023-09-15T13:36:38.441Z,25.40
2023-09-15T13:39:26.038Z,25.70
2023-09-15T13:42:19.912Z,25.70
2023-09-15T13:45:12.339Z,25.80
2023-09-15T13:47:59.875Z,25.90
2023-09-15T13:50:47.664Z,26.20
2023-09-15T13:53:38.129Z,26.30
2023-09-15T13:56:25.723Z,25.90
2023-09-15T13:59:13.428Z,26.10
2023-09-15T14:02:00.781Z,25.80
2023-09-15T14:04:48.735Z,26.00
2023-09-15T14:07:36.133Z,25.70
2023-09-15T14:10:25.310Z,25.80
2023-09-15T14:13:15.924Z,25.90
2023-09-15T14:16:03.468Z,25.50
2023-09-15T14:18:52.198Z,25.60
2023-09-15T14:21:41.932Z,25.60
2023-09-15T14:24:33.930Z,26.00
2023-09-15T14:27:22.954Z,25.80
2023-09-15T14:30:11.134Z,26.10
2023-09-15T14:32:58.572Z,26.00
2023-09-15T14:35:46.732Z,25.20
2023-09-15T14:38:35.023Z,25.50
2023-09-15T14:41:22.242Z,25.60
2023-09-15T14:44:19.338Z,25.30
2023-09-15T14:47:07.404Z,25.40
2023-09-15T14:49:54.957Z,25.20
2023-09-15T14:52:43.673Z,24.80
2023-09-15T14:55:31.000Z,24.60
2023-09-15T14:58:19.244Z,25.00
2023-09-15T15:01:07.989Z,25.40
2023-09-15T15:03:57.345Z,25.40
2023-09-15T15:06:45.383Z,24.90
2023-09-15T15:09:33.634Z,24.80
2023-09-15T15:12:21.721Z,24.30
2023-09-15T15:15:18.661Z,24.10
2023-09-15T15:18:09.808Z,24.00
2023-09-15T15:20:57.364Z,24.10
2023-09-15T15:23:47.544Z,24.30
2023-09-15T15:26:36.783Z,24.10
2023-09-15T15:29:25.109Z,24.00
2023-09-15T15:32:13.500Z,23.70
2023-09-15T15:35:02.499Z,23.50
2023-09-15T15:37:50.821Z,23.30
2023-09-15T15:40:38.215Z,23.30
2023-09-15T15:43:26.604Z,23.30
2023-09-15T15:46:16.604Z,23.30
2023-09-15T15:49:04.032Z,23.40
2023-09-15T15:51:53.822Z,23.50
2023-09-15T15:54:41.769Z,23.50
2023-09-15T15:57:29.523Z,23.50
2023-09-15T16:00:16.977Z,23.50
2023-09-15T16:03:05.443Z,23.50
2023-09-15T16:05:55.395Z,23.40
2023-09-15T16:08:45.061Z,23.40
2023-09-15T16:11:32.412Z,23.30
2023-09-15T16:14:21.688Z,23.20
2023-09-15T16:17:09.080Z,23.00
2023-09-15T16:20:02.851Z,22.90
2023-09-15T16:22:50.154Z,22.80
2023-09-15T16:25:40.473Z,22.60
2023-09-15T16:28:31.694Z,22.40
2023-09-15T16:31:20.073Z,22.10
2023-09-15T16:34:07.494Z,22.00
2023-09-15T16:36:55.731Z,21.90
2023-09-15T16:39:43.552Z,21.80
2023-09-15T16:42:32.269Z,21.80
2023-09-15T16:45:19.992Z,21.60
2023-09-15T16:48:07.383Z,21.60
2023-09-15T16:50:55.181Z,21.50
2023-09-15T16:53:43.196Z,21.40
2023-09-15T16:56:30.457Z,21.30
2023-09-15T16:59:20.014Z,21.30
2023-09-15T17:02:07.265Z,21.20
2023-09-15T17:04:57.388Z,21.10
2023-09-15T17:07:44.702Z,21.00
2023-09-15T17:10:32.983Z,21.00
2023-09-15T17:13:20.855Z,20.90
2023-09-15T17:16:09.691Z,20.90
2023-09-15T17:18:57.344Z,20.90
2023-09-15T17:21:48.970Z,20.80
2023-09-15T17:24:40.001Z,20.70
2023-09-15T17:27:27.281Z,20.60
2023-09-15T17:30:16.183Z,20.60
2023-09-15T17:33:05.487Z,20.60
2023-09-15T17:35:53.230Z,20.50
2023-09-15T17:38:42.793Z,20.40
2023-09-15T17:41:30.622Z,20.40
2023-09-15T17:44:18.362Z,20.30
2023-09-15T17:47:06.345Z,20.20
2023-09-15T17:50:05.832Z,20.00
2023-09-15T17:52:55.589Z,19.90
2023-09-15T17:55:42.849Z,19.90
2023-09-15T17:58:31.125Z,19.90
2023-09-15T18:01:18.871Z,19.80
2023-09-15T18:04:06.562Z,19.80
2023-09-15T18:06:55.188Z,19.80
2023-09-15T18:09:43.660Z,19.80
2023-09-15T18:12:31.497Z,19.70
2023-09-15T18:15:19.302Z,19.60
2023-09-15T18:18:07.827Z,19.70
2023-09-15T18:20:56.319Z,19.60
2023-09-15T18:23:45.725Z,19.50
2023-09-15T18:26:32.938Z,19.50
2023-09-15T18:29:21.200Z,19.50
2023-09-15T18:32:08.897Z,19.50
2023-09-15T18:34:57.165Z,19.40
2023-09-15T18:37:44.502Z,19.40
2023-09-15T18:40:35.264Z,19.30
2023-09-15T18:43:22.475Z,19.30
2023-09-15T18:46:10.317Z,19.20
2023-09-15T18:48:59.812Z,19.30
2023-09-15T18:51:48.085Z,19.20
2023-09-15T18:54:36.736Z,19.20
2023-09-15T18:57:26.508Z,19.20
2023-09-15T19:00:14.416Z,19.10
2023-09-15T19:03:04.082Z,19.10
2023-09-15T19:05:52.733Z,19.10
2023-09-15T19:08:39.941Z,19.10
2023-09-15T19:11:28.694Z,19.00
2023-09-15T19:14:17.434Z,19.00
2023-09-15T19:17:04.991Z,19.00
2023-09-15T19:19:52.845Z,18.90
2023-09-15T19:22:41.336Z,18.90
2023-09-15T19:25:29.834Z,18.80
2023-09-15T19:28:17.178Z,18.80
2023-09-15T19:31:05.913Z,18.80
2023-09-15T19:33:54.786Z,18.70
2023-09-15T19:36:42.227Z,18.80
2023-09-15T19:39:30.962Z,18.70
2023-09-15T19:42:18.286Z,18.60
2023-09-15T19:45:07.012Z,18.60
2023-09-15T19:47:56.299Z,18.50
2023-09-15T19:50:43.694Z,18.60
2023-09-15T19:53:32.411Z,18.50
2023-09-15T19:56:19.681Z,18.40
2023-09-15T19:59:08.124Z,18.30
2023-09-15T20:01:55.378Z,18.30
2023-09-15T20:04:45.155Z,18.30
2023-09-15T20:07:32.382Z,18.20
2023-09-15T20:10:21.246Z,18.10
2023-09-15T20:13:09.537Z,18.10
2023-09-15T20:15:57.384Z,18.10
2023-09-15T20:18:44.669Z,18.10
2023-09-15T20:21:33.991Z,18.00
2023-09-15T20:24:22.363Z,18.00
2023-09-15T20:27:09.579Z,18.00
2023-09-15T20:29:57.646Z,17.90
2023-09-15T20:32:45.009Z,17.80
2023-09-15T20:35:33.270Z,17.70
2023-09-15T20:38:21.933Z,17.60
2023-09-15T20:41:11.090Z,17.50
2023-09-15T20:43:58.325Z,17.60
2023-09-15T20:46:46.122Z,17.60
2023-09-15T20:49:33.379Z,17.60
2023-09-15T20:52:20.918Z,17.60
2023-09-15T20:55:10.203Z,17.60
2023-09-15T20:57:58.273Z,17.60
2023-09-15T21:00:46.333Z,17.50
2023-09-15T21:03:34.869Z,17.50
2023-09-15T21:06:22.802Z,17.50
2023-09-15T21:09:10.703Z,17.40
2023-09-15T21:11:59.824Z,17.30
2023-09-15T21:14:47.173Z,17.30
2023-09-15T21:17:35.872Z,17.20
2023-09-15T21:20:23.576Z,17.20
2023-09-15T21:23:11.441Z,17.20
2023-09-15T21:25:59.799Z,17.30
2023-09-15T21:28:49.086Z,17.20
2023-09-15T21:31:36.753Z,17.20
2023-09-15T21:34:24.950Z,17.10
2023-09-15T21:37:12.183Z,17.10
2023-09-15T21:40:00.391Z,17.00
2023-09-15T21:42:48.568Z,17.00
2023-09-15T21:45:37.139Z,17.00
2023-09-15T21:48:25.541Z,17.00
2023-09-15T21:51:13.484Z,17.00
2023-09-15T21:54:01.241Z,16.90
2023-09-15T21:56:49.453Z,16.90
2023-09-15T21:59:37.190Z,16.80
2023-09-15T22:02:26.360Z,16.50
2023-09-15T22:05:17.185Z,16.50
2023-09-15T22:08:04.942Z,16.60
2023-09-15T22:10:53.154Z,16.50
2023-09-15T22:13:41.207Z,16.50
2023-09-15T22:16:28.949Z,16.50
2023-09-15T22:19:20.564Z,16.50
2023-09-15T22:22:09.518Z,16.40
2023-09-15T22:24:56.738Z,16.40
2023-09-15T22:27:45.345Z,16.40
2023-09-15T22:30:34.140Z,16.30
2023-09-15T22:33:21.806Z,16.20
2023-09-15T22:36:12.007Z,16.30
2023-09-15T22:38:59.275Z,16.30
2023-09-15T22:41:47.547Z,16.20
2023-09-15T22:44:39.126Z,16.30
2023-09-15T22:47:28.263Z,16.30
2023-09-15T22:50:15.548Z,16.30
2023-09-15T22:53:04.545Z,16.30
2023-09-15T22:55:52.825Z,16.30
2023-09-15T22:58:40.122Z,16.30
2023-09-15T23:01:28.589Z,16.10
2023-09-15T23:04:15.992Z,16.10
2023-09-15T23:07:03.484Z,16.00
2023-09-15T23:09:52.836Z,15.90
2023-09-15T23:12:41.095Z,15.90
2023-09-15T23:15:28.977Z,15.90
2023-09-15T23:18:16.179Z,15.90
2023-09-15T23:21:04.945Z,15.90
2023-09-15T23:23:52.768Z,15.90
2023-09-15T23:26:42.821Z,15.70
2023-09-15T23:29:31.210Z,15.60
2023-09-15T23:32:19.550Z,15.60
2023-09-15T23:35:08.208Z,15.60
2023-09-15T23:37:56.463Z,15.70
2023-09-15T23:40:44.245Z,15.60
2023-09-15T23:43:33.245Z,15.70
2023-09-15T23:46:21.165Z,15.60
2023-09-15T23:49:08.718Z,15.70
2023-09-15T23:51:57.031Z,15.60
2023-09-15T23:54:44.299Z,15.70
2023-09-15T23:57:32.629Z,15.70
